createdAt,value
2023-05-24T00:00:28.152Z,64.68
2023-05-24T00:03:15.915Z,64.57
2023-05-24T00:05:42.812Z,62.89
2023-05-24T00:08:09.465Z,60.77
2023-05-24T00:10:35.917Z,58.91
2023-05-24T00:13:02.377Z,58.92
2023-05-24T00:15:28.951Z,60.41
2023-05-24T00:17:55.413Z,63.63
2023-05-24T00:20:22.029Z,63.60
2023-05-24T00:22:48.546Z,62.75
2023-05-24T00:25:15.206Z,61.08
2023-05-24T00:27:41.804Z,60.06
2023-05-24T00:30:08.386Z,58.59
2023-05-24T00:32:34.858Z,58.43
2023-05-24T00:35:03.632Z,60.50
2023-05-24T00:37:31.651Z,64.83
2023-05-24T00:39:58.102Z,64.17
2023-05-24T00:42:24.464Z,62.29
2023-05-24T00:44:50.874Z,60.87
2023-05-24T00:47:17.652Z,59.90
2023-05-24T00:49:46.270Z,58.81
2023-05-24T00:52:12.837Z,60.35
2023-05-24T00:54:40.400Z,63.44
2023-05-24T00:57:07.046Z,64.60
2023-05-24T00:59:33.702Z,62.93
2023-05-24T01:02:00.339Z,61.63
2023-05-24T01:04:27.621Z,59.50
2023-05-24T01:07:17.423Z,58.60
2023-05-24T01:10:03.611Z,61.07
2023-05-24T01:12:54.350Z,64.39
2023-05-24T01:15:30.826Z,63.41
2023-05-24T01:18:00.965Z,62.23
2023-05-24T01:20:32.262Z,60.55
2023-05-24T01:23:15.517Z,59.80
2023-05-24T01:25:49.213Z,59.42
2023-05-24T01:28:19.311Z,61.35
2023-05-24T01:30:46.724Z,64.13
2023-05-24T01:33:13.766Z,64.21
2023-05-24T01:35:41.619Z,62.43
2023-05-24T01:38:10.329Z,60.65
2023-05-24T01:40:37.737Z,60.05
2023-05-24T01:43:06.342Z,58.37
2023-05-24T01:45:37.424Z,58.83
2023-05-24T01:48:13.280Z,61.21
2023-05-24T01:50:49.422Z,65.50
2023-05-24T01:53:19.262Z,64.80
2023-05-24T01:55:48.548Z,62.30
2023-05-24T01:58:15.955Z,60.21
2023-05-24T02:00:44.330Z,58.34
2023-05-24T02:03:13.838Z,60.04
2023-05-24T02:05:40.313Z,61.11
2023-05-24T02:08:06.964Z,65.23
2023-05-24T02:10:33.393Z,65.02
2023-05-24T02:13:00.058Z,62.05
2023-05-24T02:15:29.629Z,60.32
2023-05-24T02:17:57.908Z,58.62
2023-05-24T02:20:24.753Z,59.67
2023-05-24T02:22:51.167Z,61.53
2023-05-24T02:25:17.564Z,64.84
2023-05-24T02:27:46.465Z,65.04
2023-05-24T02:30:13.269Z,63.29
2023-05-24T02:32:40.321Z,61.18
2023-05-24T02:35:07.293Z,58.35
2023-05-24T02:37:33.809Z,58.54
2023-05-24T02:40:00.303Z,60.66
2023-05-24T02:42:26.743Z,63.81
2023-05-24T02:44:53.224Z,63.96
2023-05-24T02:47:19.762Z,62.50
2023-05-24T02:49:46.268Z,61.02
2023-05-24T02:52:14.013Z,59.71
2023-05-24T02:54:40.534Z,57.65
2023-05-24T02:57:06.937Z,58.95
2023-05-24T02:59:33.589Z,60.94
2023-05-24T03:02:00.811Z,63.91
2023-05-24T03:04:27.493Z,63.83
2023-05-24T03:06:54.281Z,62.00
2023-05-24T03:09:21.589Z,60.47
2023-05-24T03:11:49.097Z,58.62
2023-05-24T03:14:16.760Z,57.39
2023-05-24T03:16:43.438Z,59.59
2023-05-24T03:19:10.233Z,61.46
2023-05-24T03:21:37.358Z,64.67
2023-05-24T03:24:04.014Z,64.74
2023-05-24T03:26:30.955Z,62.71
2023-05-24T03:28:57.415Z,60.29
2023-05-24T03:31:28.551Z,58.19
2023-05-24T03:33:55.678Z,59.15
2023-05-24T03:36:22.610Z,61.02
2023-05-24T03:38:49.815Z,63.91
2023-05-24T03:41:17.739Z,63.93
2023-05-24T03:43:44.149Z,62.20
2023-05-24T03:46:15.526Z,60.47
2023-05-24T03:48:42.418Z,58.78
2023-05-24T03:51:08.830Z,58.37
2023-05-24T03:53:35.289Z,59.82
2023-05-24T03:56:01.824Z,62.00
2023-05-24T03:58:28.413Z,65.59
2023-05-24T04:00:55.031Z,63.45
2023-05-24T04:03:22.386Z,60.94
2023-05-24T04:05:49.204Z,59.77
2023-05-24T04:08:15.898Z,57.54
2023-05-24T04:10:42.974Z,57.52
2023-05-24T04:13:11.008Z,59.14
2023-05-24T04:15:37.581Z,60.85
2023-05-24T04:18:05.064Z,63.83
2023-05-24T04:20:34.136Z,65.13
2023-05-24T04:23:00.661Z,62.88
2023-05-24T04:25:27.093Z,61.14
2023-05-24T04:27:55.493Z,59.35
2023-05-24T04:30:23.234Z,57.85
2023-05-24T04:32:50.787Z,59.15
2023-05-24T04:35:17.626Z,60.41
2023-05-24T04:37:44.522Z,63.94
2023-05-24T04:40:11.706Z,65.48
2023-05-24T04:42:38.578Z,63.30
2023-05-24T04:45:06.464Z,60.51
2023-05-24T04:47:32.949Z,57.91
2023-05-24T04:49:59.500Z,57.16
2023-05-24T04:52:25.990Z,59.92
2023-05-24T04:54:54.578Z,60.09
2023-05-24T04:57:21.608Z,64.21
2023-05-24T04:59:48.390Z,64.23
2023-05-24T05:02:14.932Z,61.39
2023-05-24T05:04:41.728Z,58.72
2023-05-24T05:07:08.398Z,59.23
2023-05-24T05:09:35.236Z,60.19
2023-05-24T05:12:02.305Z,61.24
2023-05-24T05:14:29.063Z,63.89
2023-05-24T05:16:55.579Z,62.56
2023-05-24T05:19:22.145Z,60.41
2023-05-24T05:21:48.651Z,56.50
2023-05-24T05:24:16.140Z,57.31
2023-05-24T05:26:42.585Z,59.13
2023-05-24T05:29:09.380Z,60.58
2023-05-24T05:31:35.960Z,60.83
2023-05-24T05:34:02.511Z,63.24
2023-05-24T05:36:29.020Z,63.39
2023-05-24T05:38:55.508Z,61.05
2023-05-24T05:41:21.984Z,57.16
2023-05-24T05:43:48.470Z,57.05
2023-05-24T05:46:15.571Z,58.05
2023-05-24T05:48:43.279Z,59.20
2023-05-24T05:51:11.498Z,61.28
2023-05-24T05:53:37.887Z,63.42
2023-05-24T05:56:04.475Z,61.38
2023-05-24T05:58:31.115Z,57.61
2023-05-24T06:00:57.942Z,56.86
2023-05-24T06:03:24.588Z,58.47
2023-05-24T06:05:51.264Z,59.84
2023-05-24T06:08:17.669Z,60.32
2023-05-24T06:10:44.927Z,61.01
2023-05-24T06:13:13.926Z,63.18
2023-05-24T06:15:40.518Z,63.05
2023-05-24T06:18:07.080Z,60.11
2023-05-24T06:20:33.717Z,56.63
2023-05-24T06:23:00.770Z,56.37
2023-05-24T06:25:30.139Z,57.60
2023-05-24T06:27:56.733Z,57.88
2023-05-24T06:30:23.251Z,59.99
2023-05-24T06:32:50.191Z,60.97
2023-05-24T06:35:17.116Z,61.68
2023-05-24T06:37:43.717Z,64.27
2023-05-24T06:40:10.888Z,64.06
2023-05-24T06:42:37.531Z,60.51
2023-05-24T06:45:04.734Z,55.74
2023-05-24T06:47:31.477Z,55.93
2023-05-24T06:49:58.164Z,57.10
2023-05-24T06:52:24.858Z,58.69
2023-05-24T06:54:51.721Z,59.65
2023-05-24T06:57:18.339Z,60.05
2023-05-24T06:59:44.945Z,60.71
2023-05-24T07:02:11.533Z,60.98
2023-05-24T07:04:40.678Z,63.07
2023-05-24T07:07:08.323Z,61.47
2023-05-24T07:09:35.119Z,57.90
2023-05-24T07:12:01.950Z,56.93
2023-05-24T07:14:28.403Z,57.72
2023-05-24T07:16:56.726Z,58.89
2023-05-24T07:19:27.066Z,59.41
2023-05-24T07:21:53.729Z,60.25
2023-05-24T07:24:21.379Z,60.67
2023-05-24T07:26:48.648Z,61.01
2023-05-24T07:29:15.427Z,62.74
2023-05-24T07:31:42.090Z,62.24
2023-05-24T07:34:08.572Z,58.30
2023-05-24T07:36:35.163Z,57.01
2023-05-24T07:39:04.049Z,56.96
2023-05-24T07:41:30.820Z,57.91
2023-05-24T07:43:57.262Z,58.58
2023-05-24T07:46:23.866Z,59.82
2023-05-24T07:48:50.818Z,59.56
2023-05-24T07:51:17.249Z,60.29
2023-05-24T07:53:43.727Z,60.10
2023-05-24T07:56:10.547Z,60.17
2023-05-24T07:58:37.221Z,60.80
2023-05-24T12:09:29.498Z,48.41
2023-05-24T12:11:58.539Z,49.16
2023-05-24T12:14:30.925Z,48.83
2023-05-24T12:17:01.097Z,49.02
2023-05-24T12:19:36.758Z,49.11
2023-05-24T12:22:07.241Z,49.88
2023-05-24T12:24:37.739Z,49.45
2023-05-24T12:27:07.411Z,48.95
2023-05-24T12:29:38.648Z,49.75
2023-05-24T12:32:12.343Z,49.09
2023-05-24T12:34:42.621Z,49.37
2023-05-24T12:37:15.149Z,47.83
2023-05-24T12:39:44.523Z,48.43
2023-05-24T12:42:13.902Z,46.68
2023-05-24T12:44:42.501Z,46.65
2023-05-24T12:47:10.672Z,47.02
2023-05-24T12:49:38.858Z,47.04
2023-05-24T12:52:07.231Z,47.88
2023-05-24T12:54:35.619Z,47.04
2023-05-24T12:57:03.869Z,47.26
2023-05-24T12:59:31.902Z,47.38
2023-05-24T13:01:59.733Z,47.28
2023-05-24T13:04:28.213Z,47.35
2023-05-24T13:06:56.254Z,47.17
2023-05-24T13:09:25.959Z,47.84
2023-05-24T13:11:55.425Z,47.11
2023-05-24T13:14:23.487Z,46.93
2023-05-24T13:16:51.584Z,47.28
2023-05-24T13:19:19.718Z,47.63
2023-05-24T13:21:47.710Z,47.15
2023-05-24T13:24:16.556Z,47.26
2023-05-24T13:26:45.634Z,46.38
2023-05-24T13:31:48.246Z,45.60
2023-05-24T13:34:16.143Z,45.25
2023-05-24T13:36:45.610Z,44.28
2023-05-24T13:39:16.268Z,43.96
2023-05-24T13:41:45.500Z,44.37
2023-05-24T13:44:14.533Z,43.92
2023-05-24T13:46:43.644Z,42.73
2023-05-24T13:49:12.904Z,41.98
2023-05-24T13:51:40.866Z,41.87
2023-05-24T13:54:08.911Z,40.68
2023-05-24T13:56:37.273Z,40.90
2023-05-24T13:59:06.485Z,39.64
2023-05-24T14:01:37.144Z,39.68
2023-05-24T14:04:06.186Z,40.51
2023-05-24T14:06:34.906Z,40.24
2023-05-24T14:09:02.800Z,40.47
2023-05-24T14:11:31.881Z,39.16
2023-05-24T14:16:31.690Z,38.06
2023-05-24T14:18:59.868Z,37.71
2023-05-24T14:21:28.022Z,38.25
2023-05-24T14:23:56.091Z,38.49
2023-05-24T14:26:24.473Z,39.16
2023-05-24T14:28:55.993Z,38.32
2023-05-24T14:31:24.867Z,37.53
2023-05-24T14:33:53.133Z,37.65
2023-05-24T14:36:21.312Z,37.95
2023-05-24T14:38:49.471Z,37.35
2023-05-24T14:41:17.389Z,36.73
2023-05-24T14:43:45.665Z,35.67
2023-05-24T14:46:13.643Z,35.39
2023-05-24T14:48:41.810Z,34.86
2023-05-24T14:51:09.870Z,34.50
2023-05-24T14:53:37.753Z,32.86
2023-05-24T14:56:08.243Z,32.07
2023-05-24T14:58:36.426Z,31.30
2023-05-24T15:01:04.714Z,30.53
2023-05-24T15:03:33.177Z,29.62
2023-05-24T15:06:01.945Z,29.63
2023-05-24T15:08:30.978Z,29.81
2023-05-24T15:10:59.610Z,29.30
2023-05-24T15:13:27.805Z,28.30
2023-05-24T15:15:59.052Z,28.58
2023-05-24T15:18:30.464Z,28.99
2023-05-24T15:20:58.598Z,29.13
2023-05-24T15:23:26.859Z,28.25
2023-05-24T15:25:54.750Z,27.87
2023-05-24T15:28:24.763Z,27.02
2023-05-24T15:30:54.543Z,26.29
2023-05-24T15:33:22.897Z,26.38
2023-05-24T15:35:51.274Z,25.90
2023-05-24T15:38:19.450Z,25.79
2023-05-24T15:40:47.364Z,25.14
2023-05-24T15:46:23.204Z,25.34
2023-05-24T15:48:51.223Z,25.62
2023-05-24T15:51:57.460Z,25.53
2023-05-24T15:54:08.113Z,25.07
2023-05-24T15:56:35.921Z,23.84
2023-05-24T15:59:03.880Z,22.78
2023-05-24T16:01:31.903Z,23.31
2023-05-24T16:04:00.655Z,23.66
2023-05-24T16:06:28.859Z,25.24
2023-05-24T16:08:56.855Z,26.69
2023-05-24T16:11:24.850Z,27.76
2023-05-24T16:13:54.289Z,28.64
2023-05-24T16:16:23.712Z,27.55
2023-05-24T16:18:51.762Z,27.00
2023-05-24T16:21:19.961Z,27.58
2023-05-24T16:23:48.232Z,27.59
2023-05-24T16:27:03.816Z,28.63
2023-05-24T16:29:32.071Z,29.59
2023-05-24T16:32:00.547Z,30.18
2023-05-24T16:34:28.860Z,30.15
2023-05-24T16:36:57.454Z,29.88
2023-05-24T16:39:26.067Z,29.24
2023-05-24T16:41:54.089Z,27.90
2023-05-24T16:44:22.458Z,27.20
2023-05-24T16:46:50.476Z,25.89
2023-05-24T16:49:18.815Z,25.05
2023-05-24T16:51:47.066Z,25.33
2023-05-24T16:54:16.329Z,25.64
2023-05-24T16:56:46.200Z,25.32
2023-05-24T16:59:14.461Z,25.67
2023-05-24T17:01:45.275Z,26.31
2023-05-24T17:04:13.888Z,26.79
2023-05-24T17:06:42.320Z,27.13
2023-05-24T17:09:10.209Z,27.16
2023-05-24T17:11:38.077Z,27.07
2023-05-24T17:14:06.470Z,26.45
2023-05-24T17:16:34.515Z,25.64
2023-05-24T17:19:03.578Z,25.08
2023-05-24T17:21:32.417Z,24.74
2023-05-24T17:24:00.886Z,24.41
2023-05-24T17:26:29.303Z,24.01
2023-05-24T17:28:57.690Z,24.15
2023-05-24T17:31:25.690Z,24.33
2023-05-24T17:33:55.822Z,24.07
2023-05-24T17:36:23.979Z,24.12
2023-05-24T17:38:51.843Z,24.66
2023-05-24T17:41:21.093Z,25.59
2023-05-24T17:43:50.364Z,26.44
2023-05-24T17:46:18.308Z,27.67
2023-05-24T17:48:47.787Z,29.05
2023-05-24T17:51:19.474Z,30.78
2023-05-24T17:53:47.422Z,32.29
2023-05-24T17:56:16.513Z,32.82
2023-05-24T17:58:47.471Z,35.31
2023-05-24T18:01:16.471Z,36.55
2023-05-24T18:03:44.472Z,37.75
2023-05-24T18:06:12.859Z,38.71
2023-05-24T18:08:43.872Z,39.39
2023-05-24T18:11:14.000Z,40.72
2023-05-24T18:13:43.186Z,41.40
2023-05-24T18:16:12.316Z,42.23
2023-05-24T18:18:41.454Z,42.83
2023-05-24T18:21:09.895Z,43.84
2023-05-24T18:23:38.159Z,44.41
2023-05-24T18:26:11.363Z,45.19
2023-05-24T18:28:42.213Z,46.02
2023-05-24T18:31:12.002Z,46.49
2023-05-24T18:33:41.136Z,47.18
2023-05-24T18:36:09.632Z,47.20
2023-05-24T18:38:41.437Z,48.05
2023-05-24T18:41:11.908Z,48.43
2023-05-24T18:43:43.153Z,48.94
2023-05-24T18:46:13.950Z,49.64
2023-05-24T18:48:42.225Z,50.43
2023-05-24T18:51:10.484Z,50.73
2023-05-24T18:53:40.192Z,51.32
2023-05-24T18:56:08.645Z,52.08
2023-05-24T18:58:37.666Z,52.63
2023-05-24T19:01:06.336Z,53.08
2023-05-24T19:03:34.868Z,53.48
2023-05-24T19:06:03.560Z,53.75
2023-05-24T19:08:31.801Z,54.07
2023-05-24T19:10:59.825Z,54.58
2023-05-24T19:13:28.122Z,54.74
2023-05-24T19:15:56.532Z,54.99
2023-05-24T19:18:26.628Z,55.27
2023-05-24T19:20:54.837Z,55.71
2023-05-24T19:23:23.093Z,56.12
2023-05-24T19:25:51.475Z,56.50
2023-05-24T19:28:19.710Z,56.62
2023-05-24T19:30:48.633Z,56.86
2023-05-24T19:33:16.909Z,57.22
2023-05-24T19:35:46.146Z,57.42
2023-05-24T19:38:17.616Z,57.60
2023-05-24T19:40:46.050Z,58.09
2023-05-24T19:43:14.043Z,58.67
2023-05-24T19:45:42.321Z,59.07
2023-05-24T19:48:11.921Z,59.19
2023-05-24T19:50:40.652Z,59.36
2023-05-24T19:53:09.052Z,59.51
2023-05-24T19:55:37.628Z,59.68
2023-05-24T19:58:05.863Z,59.90
2023-05-24T20:00:34.197Z,60.15
2023-05-24T20:03:02.637Z,60.06
2023-05-24T20:05:31.158Z,60.36
2023-05-24T20:07:59.491Z,60.55
2023-05-24T20:10:30.177Z,61.10
2023-05-24T20:12:59.225Z,61.38
2023-05-24T20:15:28.398Z,61.64
2023-05-24T20:17:56.688Z,61.70
2023-05-24T20:20:26.107Z,61.80
2023-05-24T20:22:54.378Z,62.05
2023-05-24T20:25:24.253Z,62.12
2023-05-24T20:27:52.430Z,65.39
2023-05-24T20:30:20.776Z,65.11
2023-05-24T20:32:49.319Z,60.20
2023-05-24T20:35:17.380Z,55.45
2023-05-24T20:37:45.587Z,54.36
2023-05-24T20:40:23.097Z,54.73
2023-05-24T20:42:51.727Z,55.66
2023-05-24T20:45:19.906Z,56.73
2023-05-24T20:47:48.911Z,57.53
2023-05-24T20:50:17.937Z,58.03
2023-05-24T20:52:46.317Z,58.66
2023-05-24T20:55:16.647Z,58.79
2023-05-24T20:57:45.206Z,59.32
2023-05-24T21:00:13.633Z,59.99
2023-05-24T21:02:41.518Z,60.24
2023-05-24T21:05:10.009Z,60.50
2023-05-24T21:07:38.407Z,60.96
2023-05-24T21:10:07.701Z,60.99
2023-05-24T21:12:35.697Z,61.35
2023-05-24T21:15:04.234Z,61.67
2023-05-24T21:17:32.097Z,61.91
2023-05-24T21:19:59.952Z,64.87
2023-05-24T21:22:27.876Z,65.93
2023-05-24T21:24:56.700Z,61.87
2023-05-24T21:27:24.588Z,56.92
2023-05-24T21:29:52.390Z,55.29
2023-05-24T21:32:20.435Z,55.75
2023-05-24T21:34:49.775Z,56.85
2023-05-24T21:37:17.606Z,57.94
2023-05-24T21:39:45.613Z,59.05
2023-05-24T21:42:13.417Z,59.97
2023-05-24T21:44:41.245Z,60.31
2023-05-24T21:47:09.309Z,60.73
2023-05-24T21:49:37.116Z,61.00
2023-05-24T21:52:05.163Z,60.99
2023-05-24T21:54:33.006Z,61.65
2023-05-24T21:57:01.579Z,64.55
2023-05-24T21:59:29.532Z,66.02
2023-05-24T22:01:57.402Z,62.33
2023-05-24T22:04:25.410Z,57.82
2023-05-24T22:06:53.184Z,56.13
2023-05-24T22:09:21.032Z,56.68
2023-05-24T22:11:48.843Z,57.95
2023-05-24T22:14:16.781Z,58.91
2023-05-24T22:16:44.768Z,59.50
2023-05-24T22:19:16.430Z,60.20
2023-05-24T22:21:50.163Z,60.48
2023-05-24T22:24:18.219Z,60.11
2023-05-24T22:26:46.781Z,61.58
2023-05-24T22:29:14.860Z,65.10
2023-05-24T22:31:42.697Z,65.63
2023-05-24T22:34:11.563Z,61.65
2023-05-24T22:36:39.581Z,57.48
2023-05-24T22:39:07.945Z,56.20
2023-05-24T22:41:35.841Z,57.00
2023-05-24T22:44:03.774Z,58.21
2023-05-24T22:46:31.913Z,59.43
2023-05-24T22:49:03.245Z,60.22
2023-05-24T22:51:31.870Z,60.39
2023-05-24T22:54:00.497Z,60.99
2023-05-24T22:56:28.489Z,61.87
2023-05-24T22:58:56.912Z,65.95
2023-05-24T23:01:24.815Z,65.99
2023-05-24T23:03:53.491Z,61.95
2023-05-24T23:06:21.404Z,57.67
2023-05-24T23:08:49.239Z,56.56
2023-05-24T23:11:17.545Z,57.37
2023-05-24T23:13:45.358Z,58.24
2023-05-24T23:16:17.959Z,58.80
2023-05-24T23:18:45.977Z,59.18
2023-05-24T23:21:22.445Z,59.91
2023-05-24T23:23:51.433Z,60.26
2023-05-24T23:26:19.596Z,61.18
2023-05-24T23:28:47.506Z,61.72
2023-05-24T23:31:15.815Z,65.29
2023-05-24T23:33:43.787Z,65.29
2023-05-24T23:36:11.772Z,61.47
2023-05-24T23:38:39.608Z,56.09
2023-05-24T23:41:07.389Z,54.81
2023-05-24T23:43:35.276Z,55.64
2023-05-24T23:46:03.352Z,56.47
2023-05-24T23:48:31.209Z,57.31
2023-05-24T23:50:59.169Z,58.05
2023-05-24T23:53:26.974Z,58.65
2023-05-24T23:55:54.844Z,59.09
2023-05-24T23:58:22.777Z,59.28
